sensor_id;sensor_type;location;lat;lon;timestamp;P1;durP1;ratioP1;P2;durP2;ratioP2
52708;SDS011;38606;52.986;6.980;2023-03-23T00:00:06;10.65;;;7.40;;
52708;SDS011;38606;52.986;6.980;2023-03-23T00:02:32;11.63;;;8.52;;
52708;SDS011;38606;52.986;6.980;2023-03-23T00:05:00;14.02;;;7.88;;
52708;SDS011;38606;52.986;6.980;2023-03-23T00:07:28;10.75;;;7.20;;
52708;SDS011;38606;52.986;6.980;2023-03-23T00:09:54;11.13;;;8.23;;
52708;SDS011;38606;52.986;6.980;2023-03-23T00:12:21;13.25;;;8.75;;
52708;SDS011;38606;52.986;6.980;2023-03-23T00:14:54;12.93;;;7.55;;
52708;SDS011;38606;52.986;6.980;2023-03-23T00:17:20;11.55;;;7.80;;
52708;SDS011;38606;52.986;6.980;2023-03-23T00:19:48;12.68;;;7.68;;
52708;SDS011;38606;52.986;6.980;2023-03-23T00:22:15;11.20;;;7.97;;
52708;SDS011;38606;52.986;6.980;2023-03-23T00:24:44;11.93;;;7.60;;
52708;SDS011;38606;52.986;6.980;2023-03-23T00:27:10;12.55;;;6.95;;
52708;SDS011;38606;52.986;6.980;2023-03-23T00:29:38;11.00;;;7.78;;
52708;SDS011;38606;52.986;6.980;2023-03-23T00:32:05;11.68;;;7.43;;
52708;SDS011;38606;52.986;6.980;2023-03-23T00:34:31;16.70;;;7.68;;
52708;SDS011;38606;52.986;6.980;2023-03-23T00:36:57;14.05;;;7.50;;
52708;SDS011;38606;52.986;6.980;2023-03-23T00:39:23;11.00;;;7.78;;
52708;SDS011;38606;52.986;6.980;2023-03-23T00:41:51;15.30;;;7.80;;
52708;SDS011;38606;52.986;6.980;2023-03-23T00:44:19;10.00;;;7.20;;
52708;SDS011;38606;52.986;6.980;2023-03-23T00:46:48;11.63;;;7.15;;
52708;SDS011;38606;52.986;6.980;2023-03-23T00:49:20;12.77;;;7.07;;
52708;SDS011;38606;52.986;6.980;2023-03-23T00:51:50;11.73;;;7.43;;
52708;SDS011;38606;52.986;6.980;2023-03-23T00:54:20;12.10;;;7.00;;
52708;SDS011;38606;52.986;6.980;2023-03-23T00:56:47;12.13;;;7.28;;
52708;SDS011;38606;52.986;6.980;2023-03-23T00:59:14;12.65;;;7.55;;
52708;SDS011;38606;52.986;6.980;2023-03-23T01:01:40;11.38;;;6.50;;
52708;SDS011;38606;52.986;6.980;2023-03-23T01:04:07;14.52;;;6.40;;
52708;SDS011;38606;52.986;6.980;2023-03-23T01:06:34;11.32;;;6.50;;
52708;SDS011;38606;52.986;6.980;2023-03-23T01:09:04;9.27;;;6.88;;
52708;SDS011;38606;52.986;6.980;2023-03-23T01:11:31;11.05;;;6.40;;
52708;SDS011;38606;52.986;6.980;2023-03-23T01:13:57;11.30;;;6.65;;
52708;SDS011;38606;52.986;6.980;2023-03-23T01:16:23;11.48;;;6.90;;
52708;SDS011;38606;52.986;6.980;2023-03-23T01:18:49;9.77;;;6.55;;
52708;SDS011;38606;52.986;6.980;2023-03-23T01:21:15;11.13;;;6.75;;
52708;SDS011;38606;52.986;6.980;2023-03-23T01:23:43;14.38;;;5.93;;
52708;SDS011;38606;52.986;6.980;2023-03-23T01:26:10;9.85;;;5.97;;
52708;SDS011;38606;52.986;6.980;2023-03-23T01:28:39;12.02;;;5.60;;
52708;SDS011;38606;52.986;6.980;2023-03-23T01:31:09;11.35;;;5.45;;
52708;SDS011;38606;52.986;6.980;2023-03-23T01:33:37;9.38;;;5.43;;
52708;SDS011;38606;52.986;6.980;2023-03-23T01:36:05;7.63;;;4.78;;
52708;SDS011;38606;52.986;6.980;2023-03-23T01:38:43;8.75;;;4.40;;
52708;SDS011;38606;52.986;6.980;2023-03-23T01:41:10;10.05;;;4.10;;
52708;SDS011;38606;52.986;6.980;2023-03-23T01:43:36;7.25;;;4.07;;
52708;SDS011;38606;52.986;6.980;2023-03-23T01:46:18;5.05;;;3.67;;
52708;SDS011;38606;52.986;6.980;2023-03-23T01:48:44;5.57;;;3.63;;
52708;SDS011;38606;52.986;6.980;2023-03-23T01:51:14;6.75;;;3.47;;
52708;SDS011;38606;52.986;6.980;2023-03-23T01:53:53;7.57;;;3.78;;
52708;SDS011;38606;52.986;6.980;2023-03-23T01:56:22;6.40;;;3.88;;
52708;SDS011;38606;52.986;6.980;2023-03-23T01:58:51;8.75;;;3.60;;
52708;SDS011;38606;52.986;6.980;2023-03-23T02:01:18;7.20;;;3.78;;
52708;SDS011;38606;52.986;6.980;2023-03-23T02:03:46;9.05;;;3.50;;
52708;SDS011;38606;52.986;6.980;2023-03-23T02:06:13;7.68;;;3.65;;
52708;SDS011;38606;52.986;6.980;2023-03-23T02:08:40;6.65;;;3.78;;
52708;SDS011;38606;52.986;6.980;2023-03-23T02:11:15;11.05;;;3.88;;
52708;SDS011;38606;52.986;6.980;2023-03-23T02:13:43;6.72;;;4.05;;
52708;SDS011;38606;52.986;6.980;2023-03-23T02:16:13;8.57;;;4.47;;
52708;SDS011;38606;52.986;6.980;2023-03-23T02:18:56;9.40;;;4.20;;
52708;SDS011;38606;52.986;6.980;2023-03-23T02:35:47;7.35;;;3.78;;
52708;SDS011;38606;52.986;6.980;2023-03-23T02:38:30;6.13;;;3.50;;
52708;SDS011;38606;52.986;6.980;2023-03-23T02:41:00;6.20;;;3.60;;
52708;SDS011;38606;52.986;6.980;2023-03-23T02:43:30;6.40;;;3.97;;
52708;SDS011;38606;52.986;6.980;2023-03-23T02:46:00;9.98;;;3.97;;
52708;SDS011;38606;52.986;6.980;2023-03-23T02:48:31;8.20;;;3.90;;
52708;SDS011;38606;52.986;6.980;2023-03-23T02:50:58;6.30;;;3.47;;
52708;SDS011;38606;52.986;6.980;2023-03-23T02:53:25;5.80;;;3.75;;
52708;SDS011;38606;52.986;6.980;2023-03-23T02:55:53;7.72;;;3.83;;
52708;SDS011;38606;52.986;6.980;2023-03-23T02:58:22;5.50;;;3.20;;
52708;SDS011;38606;52.986;6.980;2023-03-23T03:00:48;8.70;;;4.00;;
52708;SDS011;38606;52.986;6.980;2023-03-23T03:03:17;7.28;;;3.03;;
52708;SDS011;38606;52.986;6.980;2023-03-23T03:06:10;7.18;;;3.20;;
52708;SDS011;38606;52.986;6.980;2023-03-23T03:11:16;7.50;;;3.38;;
52708;SDS011;38606;52.986;6.980;2023-03-23T03:13:55;5.72;;;3.50;;
52708;SDS011;38606;52.986;6.980;2023-03-23T03:21:56;5.47;;;3.70;;
52708;SDS011;38606;52.986;6.980;2023-03-23T03:24:24;10.15;;;3.95;;
52708;SDS011;38606;52.986;6.980;2023-03-23T03:26:53;5.68;;;3.92;;
52708;SDS011;38606;52.986;6.980;2023-03-23T03:29:34;5.90;;;3.45;;
52708;SDS011;38606;52.986;6.980;2023-03-23T03:32:03;6.90;;;4.25;;
52708;SDS011;38606;52.986;6.980;2023-03-23T03:34:33;9.70;;;4.60;;
52708;SDS011;38606;52.986;6.980;2023-03-23T03:37:00;7.35;;;4.30;;
52708;SDS011;38606;52.986;6.980;2023-03-23T03:39:26;6.65;;;4.20;;
52708;SDS011;38606;52.986;6.980;2023-03-23T03:41:53;7.25;;;3.75;;
52708;SDS011;38606;52.986;6.980;2023-03-23T03:44:20;5.90;;;3.72;;
52708;SDS011;38606;52.986;6.980;2023-03-23T03:46:45;6.95;;;3.60;;
52708;SDS011;38606;52.986;6.980;2023-03-23T03:49:11;6.88;;;3.80;;
52708;SDS011;38606;52.986;6.980;2023-03-23T03:51:37;9.13;;;3.70;;
52708;SDS011;38606;52.986;6.980;2023-03-23T03:54:04;6.10;;;3.33;;
52708;SDS011;38606;52.986;6.980;2023-03-23T03:56:30;8.48;;;3.92;;
52708;SDS011;38606;52.986;6.980;2023-03-23T03:59:01;7.85;;;3.50;;
52708;SDS011;38606;52.986;6.980;2023-03-23T04:01:27;6.03;;;3.67;;
52708;SDS011;38606;52.986;6.980;2023-03-23T04:03:53;6.25;;;3.90;;
52708;SDS011;38606;52.986;6.980;2023-03-23T04:06:19;7.38;;;3.80;;
52708;SDS011;38606;52.986;6.980;2023-03-23T04:08:45;6.93;;;3.58;;
52708;SDS011;38606;52.986;6.980;2023-03-23T04:11:12;5.95;;;3.65;;
52708;SDS011;38606;52.986;6.980;2023-03-23T04:13:39;5.63;;;3.85;;
52708;SDS011;38606;52.986;6.980;2023-03-23T04:16:06;8.23;;;3.75;;
52708;SDS011;38606;52.986;6.980;2023-03-23T04:18:32;8.38;;;4.00;;
52708;SDS011;38606;52.986;6.980;2023-03-23T04:20:59;5.32;;;3.47;;
52708;SDS011;38606;52.986;6.980;2023-03-23T04:23:27;8.05;;;3.63;;
52708;SDS011;38606;52.986;6.980;2023-03-23T04:25:55;5.40;;;3.90;;
52708;SDS011;38606;52.986;6.980;2023-03-23T04:28:23;5.15;;;3.78;;
52708;SDS011;38606;52.986;6.980;2023-03-23T04:30:50;5.85;;;3.80;;
52708;SDS011;38606;52.986;6.980;2023-03-23T04:33:24;5.38;;;3.80;;
52708;SDS011;38606;52.986;6.980;2023-03-23T04:35:52;7.35;;;4.05;;
52708;SDS011;38606;52.986;6.980;2023-03-23T04:38:18;9.07;;;3.65;;
52708;SDS011;38606;52.986;6.980;2023-03-23T04:40:46;7.68;;;3.65;;
52708;SDS011;38606;52.986;6.980;2023-03-23T04:43:16;10.18;;;4.80;;
52708;SDS011;38606;52.986;6.980;2023-03-23T04:45:55;6.90;;;4.28;;
52708;SDS011;38606;52.986;6.980;2023-03-23T04:48:23;5.15;;;3.75;;
52708;SDS011;38606;52.986;6.980;2023-03-23T04:50:53;5.50;;;3.58;;
52708;SDS011;38606;52.986;6.980;2023-03-23T04:53:19;5.32;;;3.88;;
52708;SDS011;38606;52.986;6.980;2023-03-23T04:55:46;7.25;;;4.00;;
52708;SDS011;38606;52.986;6.980;2023-03-23T04:58:14;9.10;;;3.85;;
52708;SDS011;38606;52.986;6.980;2023-03-23T05:00:41;9.52;;;4.10;;
52708;SDS011;38606;52.986;6.980;2023-03-23T05:03:09;6.72;;;4.07;;
52708;SDS011;38606;52.986;6.980;2023-03-23T05:05:35;8.38;;;4.30;;
52708;SDS011;38606;52.986;6.980;2023-03-23T05:08:01;8.93;;;4.60;;
52708;SDS011;38606;52.986;6.980;2023-03-23T05:10:27;11.05;;;4.18;;
52708;SDS011;38606;52.986;6.980;2023-03-23T05:12:53;9.30;;;4.50;;
52708;SDS011;38606;52.986;6.980;2023-03-23T05:15:19;12.27;;;4.45;;
52708;SDS011;38606;52.986;6.980;2023-03-23T05:17:45;10.02;;;4.63;;
52708;SDS011;38606;52.986;6.980;2023-03-23T05:20:12;15.80;;;4.68;;
52708;SDS011;38606;52.986;6.980;2023-03-23T05:22:39;7.47;;;2.75;;
52708;SDS011;38606;52.986;6.980;2023-03-23T05:25:06;7.55;;;1.80;;
52708;SDS011;38606;52.986;6.980;2023-03-23T05:27:39;5.18;;;1.50;;
52708;SDS011;38606;52.986;6.980;2023-03-23T05:30:08;3.58;;;1.50;;
52708;SDS011;38606;52.986;6.980;2023-03-23T05:32:34;6.18;;;1.58;;
52708;SDS011;38606;52.986;6.980;2023-03-23T05:35:02;4.68;;;1.63;;
52708;SDS011;38606;52.986;6.980;2023-03-23T05:37:28;6.00;;;2.17;;
52708;SDS011;38606;52.986;6.980;2023-03-23T05:39:57;5.80;;;1.90;;
52708;SDS011;38606;52.986;6.980;2023-03-23T05:42:31;5.32;;;2.35;;
52708;SDS011;38606;52.986;6.980;2023-03-23T05:45:01;9.55;;;2.50;;
52708;SDS011;38606;52.986;6.980;2023-03-23T05:47:28;7.35;;;2.40;;
52708;SDS011;38606;52.986;6.980;2023-03-23T05:49:55;3.70;;;2.08;;
52708;SDS011;38606;52.986;6.980;2023-03-23T05:52:21;8.50;;;2.40;;
52708;SDS011;38606;52.986;6.980;2023-03-23T05:54:48;9.98;;;2.38;;
52708;SDS011;38606;52.986;6.980;2023-03-23T05:57:14;8.35;;;2.17;;
52708;SDS011;38606;52.986;6.980;2023-03-23T05:59:40;9.77;;;1.98;;
52708;SDS011;38606;52.986;6.980;2023-03-23T06:02:07;8.60;;;2.00;;
52708;SDS011;38606;52.986;6.980;2023-03-23T06:04:32;9.75;;;2.55;;
52708;SDS011;38606;52.986;6.980;2023-03-23T06:07:00;12.43;;;2.20;;
52708;SDS011;38606;52.986;6.980;2023-03-23T06:09:27;12.57;;;2.30;;
52708;SDS011;38606;52.986;6.980;2023-03-23T06:11:53;7.93;;;1.90;;
52708;SDS011;38606;52.986;6.980;2023-03-23T06:14:18;12.77;;;2.40;;
52708;SDS011;38606;52.986;6.980;2023-03-23T06:16:44;17.88;;;3.00;;
52708;SDS011;38606;52.986;6.980;2023-03-23T06:19:10;13.82;;;2.58;;
52708;SDS011;38606;52.986;6.980;2023-03-23T06:21:37;12.68;;;2.20;;
52708;SDS011;38606;52.986;6.980;2023-03-23T06:24:03;11.55;;;2.05;;
52708;SDS011;38606;52.986;6.980;2023-03-23T06:26:30;8.90;;;2.20;;
52708;SDS011;38606;52.986;6.980;2023-03-23T06:29:00;9.15;;;2.08;;
52708;SDS011;38606;52.986;6.980;2023-03-23T06:31:26;14.38;;;2.20;;
52708;SDS011;38606;52.986;6.980;2023-03-23T06:33:52;8.07;;;1.98;;
52708;SDS011;38606;52.986;6.980;2023-03-23T06:36:18;9.30;;;2.10;;
52708;SDS011;38606;52.986;6.980;2023-03-23T06:38:44;13.52;;;2.45;;
52708;SDS011;38606;52.986;6.980;2023-03-23T06:41:10;4.72;;;1.45;;
52708;SDS011;38606;52.986;6.980;2023-03-23T06:43:36;9.63;;;1.88;;
52708;SDS011;38606;52.986;6.980;2023-03-23T06:46:04;11.73;;;2.28;;
52708;SDS011;38606;52.986;6.980;2023-03-23T06:48:31;13.45;;;1.65;;
52708;SDS011;38606;52.986;6.980;2023-03-23T06:50:57;9.35;;;2.15;;
52708;SDS011;38606;52.986;6.980;2023-03-23T06:53:22;14.07;;;2.40;;
52708;SDS011;38606;52.986;6.980;2023-03-23T06:55:48;13.30;;;2.35;;
52708;SDS011;38606;52.986;6.980;2023-03-23T06:58:15;10.43;;;2.05;;
52708;SDS011;38606;52.986;6.980;2023-03-23T07:00:41;14.65;;;2.40;;
52708;SDS011;38606;52.986;6.980;2023-03-23T07:03:06;11.18;;;2.30;;
52708;SDS011;38606;52.986;6.980;2023-03-23T07:05:33;12.93;;;2.50;;
52708;SDS011;38606;52.986;6.980;2023-03-23T07:08:00;13.30;;;3.00;;
52708;SDS011;38606;52.986;6.980;2023-03-23T07:10:27;12.55;;;2.53;;
52708;SDS011;38606;52.986;6.980;2023-03-23T07:12:53;18.88;;;2.40;;
52708;SDS011;38606;52.986;6.980;2023-03-23T07:15:19;12.80;;;2.58;;
52708;SDS011;38606;52.986;6.980;2023-03-23T07:17:45;18.63;;;2.80;;
52708;SDS011;38606;52.986;6.980;2023-03-23T07:20:12;15.07;;;3.13;;
52708;SDS011;38606;52.986;6.980;2023-03-23T07:22:39;15.68;;;3.22;;
52708;SDS011;38606;52.986;6.980;2023-03-23T07:25:04;16.90;;;2.67;;
52708;SDS011;38606;52.986;6.980;2023-03-23T07:27:30;16.98;;;3.00;;
52708;SDS011;38606;52.986;6.980;2023-03-23T07:29:56;15.55;;;3.05;;
52708;SDS011;38606;52.986;6.980;2023-03-23T07:32:23;20.75;;;3.25;;
52708;SDS011;38606;52.986;6.980;2023-03-23T07:34:49;20.23;;;3.45;;
52708;SDS011;38606;52.986;6.980;2023-03-23T07:37:15;20.70;;;3.20;;
52708;SDS011;38606;52.986;6.980;2023-03-23T07:39:42;22.50;;;3.53;;
52708;SDS011;38606;52.986;6.980;2023-03-23T07:42:08;23.25;;;2.95;;
52708;SDS011;38606;52.986;6.980;2023-03-23T07:44:33;20.45;;;3.45;;
52708;SDS011;38606;52.986;6.980;2023-03-23T07:47:00;23.42;;;3.28;;
52708;SDS011;38606;52.986;6.980;2023-03-23T07:49:26;21.73;;;3.20;;
52708;SDS011;38606;52.986;6.980;2023-03-23T07:51:52;14.30;;;2.78;;
52708;SDS011;38606;52.986;6.980;2023-03-23T07:54:17;22.73;;;3.13;;
52708;SDS011;38606;52.986;6.980;2023-03-23T07:56:43;19.40;;;2.90;;
52708;SDS011;38606;52.986;6.980;2023-03-23T07:59:10;20.63;;;3.90;;
52708;SDS011;38606;52.986;6.980;2023-03-23T08:01:37;18.90;;;3.20;;
52708;SDS011;38606;52.986;6.980;2023-03-23T08:04:04;19.05;;;3.22;;
52708;SDS011;38606;52.986;6.980;2023-03-23T08:06:31;20.52;;;3.13;;
52708;SDS011;38606;52.986;6.980;2023-03-23T08:08:59;17.75;;;3.50;;
52708;SDS011;38606;52.986;6.980;2023-03-23T08:11:25;17.45;;;3.47;;
52708;SDS011;38606;52.986;6.980;2023-03-23T08:13:51;21.35;;;3.30;;
52708;SDS011;38606;52.986;6.980;2023-03-23T08:16:18;23.95;;;3.97;;
52708;SDS011;38606;52.986;6.980;2023-03-23T08:18:45;21.23;;;3.13;;
52708;SDS011;38606;52.986;6.980;2023-03-23T08:21:11;19.88;;;3.55;;
52708;SDS011;38606;52.986;6.980;2023-03-23T08:23:38;21.90;;;4.38;;
52708;SDS011;38606;52.986;6.980;2023-03-23T08:26:08;20.58;;;3.15;;
52708;SDS011;38606;52.986;6.980;2023-03-23T08:28:35;14.95;;;3.10;;
52708;SDS011;38606;52.986;6.980;2023-03-23T08:31:11;23.55;;;4.03;;
52708;SDS011;38606;52.986;6.980;2023-03-23T08:33:38;19.08;;;3.60;;
52708;SDS011;38606;52.986;6.980;2023-03-23T08:36:06;25.17;;;3.75;;
52708;SDS011;38606;52.986;6.980;2023-03-23T08:38:33;18.10;;;3.70;;
52708;SDS011;38606;52.986;6.980;2023-03-23T08:41:00;24.60;;;4.13;;
52708;SDS011;38606;52.986;6.980;2023-03-23T08:43:28;33.83;;;4.60;;
52708;SDS011;38606;52.986;6.980;2023-03-23T08:45:54;27.15;;;4.28;;
52708;SDS011;38606;52.986;6.980;2023-03-23T08:48:20;18.77;;;3.17;;
52708;SDS011;38606;52.986;6.980;2023-03-23T08:50:47;22.73;;;3.45;;
52708;SDS011;38606;52.986;6.980;2023-03-23T08:53:13;30.33;;;4.22;;
52708;SDS011;38606;52.986;6.980;2023-03-23T08:55:39;25.75;;;4.10;;
52708;SDS011;38606;52.986;6.980;2023-03-23T08:58:05;22.48;;;3.80;;
52708;SDS011;38606;52.986;6.980;2023-03-23T09:00:31;28.02;;;3.85;;
52708;SDS011;38606;52.986;6.980;2023-03-23T09:02:57;26.90;;;4.05;;
52708;SDS011;38606;52.986;6.980;2023-03-23T09:05:25;20.27;;;3.88;;
52708;SDS011;38606;52.986;6.980;2023-03-23T09:07:53;26.33;;;3.95;;
52708;SDS011;38606;52.986;6.980;2023-03-23T09:10:21;21.27;;;3.83;;
52708;SDS011;38606;52.986;6.980;2023-03-23T09:12:48;23.20;;;3.60;;
52708;SDS011;38606;52.986;6.980;2023-03-23T09:15:15;18.15;;;3.53;;
52708;SDS011;38606;52.986;6.980;2023-03-23T09:17:43;20.65;;;3.67;;
52708;SDS011;38606;52.986;6.980;2023-03-23T09:20:11;18.20;;;3.53;;
52708;SDS011;38606;52.986;6.980;2023-03-23T09:22:45;15.23;;;3.55;;
52708;SDS011;38606;52.986;6.980;2023-03-23T09:25:13;20.65;;;3.15;;
52708;SDS011;38606;52.986;6.980;2023-03-23T09:27:44;17.80;;;3.20;;
52708;SDS011;38606;52.986;6.980;2023-03-23T09:30:12;19.95;;;4.07;;
52708;SDS011;38606;52.986;6.980;2023-03-23T09:32:39;19.98;;;3.70;;
52708;SDS011;38606;52.986;6.980;2023-03-23T09:35:08;22.38;;;3.47;;
52708;SDS011;38606;52.986;6.980;2023-03-23T09:37:36;21.17;;;3.90;;
52708;SDS011;38606;52.986;6.980;2023-03-23T09:40:04;19.35;;;3.40;;
52708;SDS011;38606;52.986;6.980;2023-03-23T09:42:44;19.23;;;3.35;;
52708;SDS011;38606;52.986;6.980;2023-03-23T09:50:45;16.20;;;3.40;;
52708;SDS011;38606;52.986;6.980;2023-03-23T09:53:24;21.42;;;3.63;;
52708;SDS011;38606;52.986;6.980;2023-03-23T09:56:01;21.30;;;4.22;;
52708;SDS011;38606;52.986;6.980;2023-03-23T10:01:06;19.17;;;4.00;;
52708;SDS011;38606;52.986;6.980;2023-03-23T10:03:47;21.30;;;4.43;;
52708;SDS011;38606;52.986;6.980;2023-03-23T10:06:17;14.05;;;3.38;;
52708;SDS011;38606;52.986;6.980;2023-03-23T10:08:48;14.35;;;3.10;;
52708;SDS011;38606;52.986;6.980;2023-03-23T10:16:50;21.42;;;3.42;;
52708;SDS011;38606;52.986;6.980;2023-03-23T10:19:35;18.60;;;3.45;;
52708;SDS011;38606;52.986;6.980;2023-03-23T10:22:17;18.17;;;2.95;;
52708;SDS011;38606;52.986;6.980;2023-03-23T10:24:51;23.45;;;3.25;;
52708;SDS011;38606;52.986;6.980;2023-03-23T10:27:38;18.48;;;3.05;;
52708;SDS011;38606;52.986;6.980;2023-03-23T10:32:53;16.95;;;3.10;;
52708;SDS011;38606;52.986;6.980;2023-03-23T10:35:29;16.77;;;3.10;;
52708;SDS011;38606;52.986;6.980;2023-03-23T10:38:10;15.98;;;3.10;;
52708;SDS011;38606;52.986;6.980;2023-03-23T10:41:09;15.82;;;2.60;;
52708;SDS011;38606;52.986;6.980;2023-03-23T10:43:37;15.95;;;2.92;;
52708;SDS011;38606;52.986;6.980;2023-03-23T10:48:54;18.08;;;2.90;;
52708;SDS011;38606;52.986;6.980;2023-03-23T10:51:27;14.93;;;2.50;;
52708;SDS011;38606;52.986;6.980;2023-03-23T10:54:05;17.33;;;3.60;;
52708;SDS011;38606;52.986;6.980;2023-03-23T10:56:42;18.85;;;3.60;;
52708;SDS011;38606;52.986;6.980;2023-03-23T10:59:29;16.42;;;2.95;;
52708;SDS011;38606;52.986;6.980;2023-03-23T11:01:59;14.23;;;2.50;;
52708;SDS011;38606;52.986;6.980;2023-03-23T11:04:28;14.40;;;2.75;;
52708;SDS011;38606;52.986;6.980;2023-03-23T11:06:58;13.02;;;2.13;;
52708;SDS011;38606;52.986;6.980;2023-03-23T11:09:36;15.00;;;2.53;;
52708;SDS011;38606;52.986;6.980;2023-03-23T11:12:04;15.57;;;3.05;;
52708;SDS011;38606;52.986;6.980;2023-03-23T11:14:45;20.15;;;3.28;;
52708;SDS011;38606;52.986;6.980;2023-03-23T11:17:20;12.70;;;2.45;;
52708;SDS011;38606;52.986;6.980;2023-03-23T11:19:50;12.02;;;2.75;;
52708;SDS011;38606;52.986;6.980;2023-03-23T11:22:26;13.02;;;2.78;;
52708;SDS011;38606;52.986;6.980;2023-03-23T11:24:54;11.73;;;2.55;;
52708;SDS011;38606;52.986;6.980;2023-03-23T11:27:24;9.60;;;2.10;;
52708;SDS011;38606;52.986;6.980;2023-03-23T11:30:07;12.30;;;2.50;;
52708;SDS011;38606;52.986;6.980;2023-03-23T11:32:46;10.85;;;2.10;;
52708;SDS011;38606;52.986;6.980;2023-03-23T11:35:20;10.35;;;2.40;;
52708;SDS011;38606;52.986;6.980;2023-03-23T11:37:58;10.18;;;2.35;;
52708;SDS011;38606;52.986;6.980;2023-03-23T11:40:29;8.43;;;1.98;;
52708;SDS011;38606;52.986;6.980;2023-03-23T11:43:17;7.95;;;1.98;;
52708;SDS011;38606;52.986;6.980;2023-03-23T11:51:06;9.63;;;2.15;;
52708;SDS011;38606;52.986;6.980;2023-03-23T11:53:48;10.57;;;2.27;;
52708;SDS011;38606;52.986;6.980;2023-03-23T11:58:55;10.02;;;2.20;;
52708;SDS011;38606;52.986;6.980;2023-03-23T12:03:54;16.73;;;2.55;;
52708;SDS011;38606;52.986;6.980;2023-03-23T12:09:30;12.15;;;3.00;;
52708;SDS011;38606;52.986;6.980;2023-03-23T12:12:14;12.63;;;2.95;;
52708;SDS011;38606;52.986;6.980;2023-03-23T12:15:07;11.73;;;2.60;;
52708;SDS011;38606;52.986;6.980;2023-03-23T12:18:01;11.73;;;2.38;;
52708;SDS011;38606;52.986;6.980;2023-03-23T12:26:37;11.98;;;2.00;;
52708;SDS011;38606;52.986;6.980;2023-03-23T12:36:53;9.38;;;1.63;;
52708;SDS011;38606;52.986;6.980;2023-03-23T12:48:07;11.48;;;2.30;;
52708;SDS011;38606;52.986;6.980;2023-03-23T12:50:40;7.35;;;1.85;;
52708;SDS011;38606;52.986;6.980;2023-03-23T12:55:44;12.57;;;2.13;;
52708;SDS011;38606;52.986;6.980;2023-03-23T12:58:21;12.93;;;2.40;;
52708;SDS011;38606;52.986;6.980;2023-03-23T13:00:55;13.88;;;2.58;;
52708;SDS011;38606;52.986;6.980;2023-03-23T13:04:10;11.43;;;2.25;;
52708;SDS011;38606;52.986;6.980;2023-03-23T13:14:15;12.65;;;2.08;;
52708;SDS011;38606;52.986;6.980;2023-03-23T13:24:55;10.68;;;2.30;;
52708;SDS011;38606;52.986;6.980;2023-03-23T13:27:27;13.80;;;2.55;;
52708;SDS011;38606;52.986;6.980;2023-03-23T13:29:57;10.43;;;2.60;;
52708;SDS011;38606;52.986;6.980;2023-03-23T13:32:35;10.60;;;2.00;;
52708;SDS011;38606;52.986;6.980;2023-03-23T13:35:03;13.43;;;2.95;;
52708;SDS011;38606;52.986;6.980;2023-03-23T13:37:40;13.35;;;2.08;;
52708;SDS011;38606;52.986;6.980;2023-03-23T13:42:56;13.07;;;2.30;;
52708;SDS011;38606;52.986;6.980;2023-03-23T13:48:28;11.88;;;2.42;;
52708;SDS011;38606;52.986;6.980;2023-03-23T13:50:50;14.38;;;2.63;;
52708;SDS011;38606;52.986;6.980;2023-03-23T13:53:22;12.57;;;2.30;;
52708;SDS011;38606;52.986;6.980;2023-03-23T13:59:48;13.82;;;2.30;;
52708;SDS011;38606;52.986;6.980;2023-03-23T14:01:57;13.35;;;2.20;;
52708;SDS011;38606;52.986;6.980;2023-03-23T14:05:07;19.05;;;2.72;;
52708;SDS011;38606;52.986;6.980;2023-03-23T14:07:55;9.80;;;2.30;;
52708;SDS011;38606;52.986;6.980;2023-03-23T14:10:48;13.38;;;2.50;;
52708;SDS011;38606;52.986;6.980;2023-03-23T14:16:48;13.48;;;2.40;;
52708;SDS011;38606;52.986;6.980;2023-03-23T14:19:03;11.80;;;2.20;;
52708;SDS011;38606;52.986;6.980;2023-03-23T14:21:40;9.85;;;1.98;;
52708;SDS011;38606;52.986;6.980;2023-03-23T14:24:21;10.85;;;2.08;;
52708;SDS011;38606;52.986;6.980;2023-03-23T14:26:50;10.95;;;2.30;;
52708;SDS011;38606;52.986;6.980;2023-03-23T14:29:18;8.82;;;2.10;;
52708;SDS011;38606;52.986;6.980;2023-03-23T14:31:45;10.45;;;2.15;;
52708;SDS011;38606;52.986;6.980;2023-03-23T14:34:21;11.40;;;2.40;;
52708;SDS011;38606;52.986;6.980;2023-03-23T14:36:50;15.25;;;2.67;;
52708;SDS011;38606;52.986;6.980;2023-03-23T14:41:54;15.70;;;2.75;;
52708;SDS011;38606;52.986;6.980;2023-03-23T14:44:23;14.18;;;2.83;;
52708;SDS011;38606;52.986;6.980;2023-03-23T14:46:51;12.77;;;2.45;;
52708;SDS011;38606;52.986;6.980;2023-03-23T14:49:20;12.23;;;2.40;;
52708;SDS011;38606;52.986;6.980;2023-03-23T14:52:15;12.88;;;2.80;;
52708;SDS011;38606;52.986;6.980;2023-03-23T14:54:42;14.45;;;2.50;;
52708;SDS011;38606;52.986;6.980;2023-03-23T14:57:28;9.23;;;1.88;;
52708;SDS011;38606;52.986;6.980;2023-03-23T14:59:54;11.85;;;2.42;;
52708;SDS011;38606;52.986;6.980;2023-03-23T15:07:37;9.82;;;2.10;;
52708;SDS011;38606;52.986;6.980;2023-03-23T15:10:07;10.55;;;1.90;;
52708;SDS011;38606;52.986;6.980;2023-03-23T15:12:36;9.32;;;1.98;;
52708;SDS011;38606;52.986;6.980;2023-03-23T15:15:04;11.40;;;1.98;;
52708;SDS011;38606;52.986;6.980;2023-03-23T15:17:34;12.45;;;2.67;;
52708;SDS011;38606;52.986;6.980;2023-03-23T15:20:17;12.18;;;2.00;;
52708;SDS011;38606;52.986;6.980;2023-03-23T15:22:45;9.25;;;1.90;;
52708;SDS011;38606;52.986;6.980;2023-03-23T15:25:17;7.75;;;1.80;;
52708;SDS011;38606;52.986;6.980;2023-03-23T15:27:55;11.45;;;2.33;;
52708;SDS011;38606;52.986;6.980;2023-03-23T15:32:52;10.93;;;2.13;;
52708;SDS011;38606;52.986;6.980;2023-03-23T15:35:32;13.32;;;2.33;;
52708;SDS011;38606;52.986;6.980;2023-03-23T15:38:02;9.10;;;2.13;;
52708;SDS011;38606;52.986;6.980;2023-03-23T15:40:38;9.88;;;2.13;;
52708;SDS011;38606;52.986;6.980;2023-03-23T15:48:47;10.77;;;2.80;;
52708;SDS011;38606;52.986;6.980;2023-03-23T15:51:15;17.95;;;2.90;;
52708;SDS011;38606;52.986;6.980;2023-03-23T15:53:42;9.25;;;2.10;;
52708;SDS011;38606;52.986;6.980;2023-03-23T15:56:09;12.13;;;2.42;;
52708;SDS011;38606;52.986;6.980;2023-03-23T15:58:36;8.98;;;2.08;;
52708;SDS011;38606;52.986;6.980;2023-03-23T16:01:25;11.80;;;2.65;;
52708;SDS011;38606;52.986;6.980;2023-03-23T16:06:19;12.52;;;2.42;;
52708;SDS011;38606;52.986;6.980;2023-03-23T16:08:47;14.13;;;2.35;;
52708;SDS011;38606;52.986;6.980;2023-03-23T16:11:14;10.10;;;2.70;;
52708;SDS011;38606;52.986;6.980;2023-03-23T16:13:41;12.45;;;2.38;;
52708;SDS011;38606;52.986;6.980;2023-03-23T16:16:12;10.45;;;2.13;;
52708;SDS011;38606;52.986;6.980;2023-03-23T16:18:43;14.05;;;2.38;;
52708;SDS011;38606;52.986;6.980;2023-03-23T16:21:09;12.43;;;2.50;;
52708;SDS011;38606;52.986;6.980;2023-03-23T16:23:35;13.55;;;2.88;;
52708;SDS011;38606;52.986;6.980;2023-03-23T16:26:01;13.90;;;2.65;;
52708;SDS011;38606;52.986;6.980;2023-03-23T16:28:26;12.35;;;2.55;;
52708;SDS011;38606;52.986;6.980;2023-03-23T16:30:52;13.50;;;2.50;;
52708;SDS011;38606;52.986;6.980;2023-03-23T16:33:18;11.07;;;2.40;;
52708;SDS011;38606;52.986;6.980;2023-03-23T16:35:44;13.73;;;2.53;;
52708;SDS011;38606;52.986;6.980;2023-03-23T16:38:13;11.68;;;2.63;;
52708;SDS011;38606;52.986;6.980;2023-03-23T16:40:41;10.73;;;2.65;;
52708;SDS011;38606;52.986;6.980;2023-03-23T16:43:08;11.77;;;2.75;;
52708;SDS011;38606;52.986;6.980;2023-03-23T16:45:38;16.80;;;3.38;;
52708;SDS011;38606;52.986;6.980;2023-03-23T16:48:05;12.45;;;2.65;;
52708;SDS011;38606;52.986;6.980;2023-03-23T16:50:32;13.32;;;2.45;;
52708;SDS011;38606;52.986;6.980;2023-03-23T16:52:59;12.85;;;2.35;;
52708;SDS011;38606;52.986;6.980;2023-03-23T16:55:25;14.18;;;3.30;;
52708;SDS011;38606;52.986;6.980;2023-03-23T16:57:52;11.60;;;2.28;;
52708;SDS011;38606;52.986;6.980;2023-03-23T17:00:19;14.55;;;3.00;;